Terminal Aerodrome Forecast
Issued by NWS

Home | Current Version | Previous Version | Text Only | Print | Product List | Glossary On
Versions: 1 2 3 4 5 6 7 8 9 10 11 12 13
000
FTUS45 KABQ 280528
TAFLVS
TAF
KLVS 280528Z 2806/2906 16006KT P6SM SCT150
     FM281600 18013KT P6SM SKC
     FM282000 20014G20KT P6SM FEW090
     FM290100 15007KT P6SM SCT090
     FM290500 02011KT P6SM SCT120=

USA.gov is the U.S. government's official web portal to all federal, state and local government web resources and services.